BRI weather

Bari Karol Wojtyła Airport
Bari, Apulia, Italy

Public forecast

Using degrees Celsius for public forecast. Weather courtesy of forecast.io.

METAR (pilot weather report)

Retrieved 2019/05/19 23:20 UTC (31 minutes ago):

LIBD 192320Z 24005KT CAVOK 14/07 Q1009

TAF (pilot weather forecast)

Retrieved 2019/05/19 18:00 UTC (6 hours ago):

TAF LIBD 191700Z 1918/2018 26010KT 9999 FEW040 BECMG 2010/2012 12010KT TEMPO 2012/2018 TSRA BECMG 2016/2018 26010KT